sensor_id;sensor_type;location;lat;lon;timestamp;temperature;humidity
13600;DHT22;6871;51.34740610;4.31323160;2023-08-06T00:00:17;21.60;84.50
13600;DHT22;6871;51.34740610;4.31323160;2023-08-06T00:02:51;21.60;84.60
13600;DHT22;6871;51.34740610;4.31323160;2023-08-06T00:05:25;21.60;84.70
13600;DHT22;6871;51.34740610;4.31323160;2023-08-06T00:07:55;21.60;84.70
13600;DHT22;6871;51.34740610;4.31323160;2023-08-06T00:10:25;21.60;84.70
13600;DHT22;6871;51.34740610;4.31323160;2023-08-06T00:12:55;21.60;84.60
13600;DHT22;6871;51.34740610;4.31323160;2023-08-06T00:15:25;21.60;84.50
13600;DHT22;6871;51.34740610;4.31323160;2023-08-06T00:18:00;21.50;84.40
13600;DHT22;6871;51.34740610;4.31323160;2023-08-06T00:20:31;21.60;84.50
13600;DHT22;6871;51.34740610;4.31323160;2023-08-06T00:26:26;21.50;84.20
13600;DHT22;6871;51.34740610;4.31323160;2023-08-06T00:28:58;21.50;84.20
13600;DHT22;6871;51.34740610;4.31323160;2023-08-06T00:31:30;21.50;84.50
13600;DHT22;6871;51.34740610;4.31323160;2023-08-06T00:34:00;21.50;85.40
13600;DHT22;6871;51.34740610;4.31323160;2023-08-06T00:36:31;21.50;84.50
13600;DHT22;6871;51.34740610;4.31323160;2023-08-06T00:39:02;21.50;84.60
13600;DHT22;6871;51.34740610;4.31323160;2023-08-06T00:41:31;21.50;84.40
13600;DHT22;6871;51.34740610;4.31323160;2023-08-06T00:44:02;21.50;84.30
13600;DHT22;6871;51.34740610;4.31323160;2023-08-06T00:46:33;21.60;84.50
13600;DHT22;6871;51.34740610;4.31323160;2023-08-06T00:49:07;21.50;84.40
13600;DHT22;6871;51.34740610;4.31323160;2023-08-06T00:51:38;21.50;84.40
13600;DHT22;6871;51.34740610;4.31323160;2023-08-06T00:54:08;21.50;84.20
13600;DHT22;6871;51.34740610;4.31323160;2023-08-06T00:56:40;21.60;85.20
13600;DHT22;6871;51.34740610;4.31323160;2023-08-06T00:59:16;21.60;84.30
13600;DHT22;6871;51.34740610;4.31323160;2023-08-06T01:01:46;21.60;84.40
13600;DHT22;6871;51.34740610;4.31323160;2023-08-06T01:08:19;21.50;84.40
13600;DHT22;6871;51.34740610;4.31323160;2023-08-06T01:11:21;21.50;84.20
13600;DHT22;6871;51.34740610;4.31323160;2023-08-06T01:17:21;21.50;84.70
13600;DHT22;6871;51.34740610;4.31323160;2023-08-06T01:20:06;21.50;84.60
13600;DHT22;6871;51.34740610;4.31323160;2023-08-06T01:22:38;21.50;84.70
13600;DHT22;6871;51.34740610;4.31323160;2023-08-06T01:25:15;21.50;84.60
13600;DHT22;6871;51.34740610;4.31323160;2023-08-06T01:27:50;21.50;84.60
13600;DHT22;6871;51.34740610;4.31323160;2023-08-06T01:36:51;21.50;84.90
13600;DHT22;6871;51.34740610;4.31323160;2023-08-06T01:39:27;21.50;85.30
13600;DHT22;6871;51.34740610;4.31323160;2023-08-06T01:41:56;21.40;86.10
13600;DHT22;6871;51.34740610;4.31323160;2023-08-06T01:44:26;21.40;85.80
13600;DHT22;6871;51.34740610;4.31323160;2023-08-06T01:46:56;21.50;85.50
13600;DHT22;6871;51.34740610;4.31323160;2023-08-06T01:49:39;21.50;85.30
13600;DHT22;6871;51.34740610;4.31323160;2023-08-06T01:52:11;21.50;85.20
13600;DHT22;6871;51.34740610;4.31323160;2023-08-06T01:54:41;21.50;85.00
13600;DHT22;6871;51.34740610;4.31323160;2023-08-06T01:57:12;21.50;85.00
13600;DHT22;6871;51.34740610;4.31323160;2023-08-06T01:59:48;21.50;85.10
13600;DHT22;6871;51.34740610;4.31323160;2023-08-06T02:02:24;21.50;85.00
13600;DHT22;6871;51.34740610;4.31323160;2023-08-06T02:04:54;21.50;85.00
13600;DHT22;6871;51.34740610;4.31323160;2023-08-06T02:07:28;21.50;84.90
13600;DHT22;6871;51.34740610;4.31323160;2023-08-06T02:09:59;21.50;85.70
13600;DHT22;6871;51.34740610;4.31323160;2023-08-06T02:12:38;21.50;84.90
13600;DHT22;6871;51.34740610;4.31323160;2023-08-06T02:15:13;21.50;84.90
13600;DHT22;6871;51.34740610;4.31323160;2023-08-06T02:17:49;21.50;85.00
13600;DHT22;6871;51.34740610;4.31323160;2023-08-06T02:23:44;21.50;84.90
13600;DHT22;6871;51.34740610;4.31323160;2023-08-06T02:26:14;21.50;84.90
13600;DHT22;6871;51.34740610;4.31323160;2023-08-06T02:32:12;21.40;85.00
13600;DHT22;6871;51.34740610;4.31323160;2023-08-06T02:35:32;21.40;85.30
13600;DHT22;6871;51.34740610;4.31323160;2023-08-06T02:38:04;21.40;85.30
13600;DHT22;6871;51.34740610;4.31323160;2023-08-06T02:40:57;21.40;85.00
13600;DHT22;6871;51.34740610;4.31323160;2023-08-06T02:43:29;21.40;85.20
13600;DHT22;6871;51.34740610;4.31323160;2023-08-06T02:46:00;21.40;85.30
13600;DHT22;6871;51.34740610;4.31323160;2023-08-06T02:52:00;21.40;85.40
13600;DHT22;6871;51.34740610;4.31323160;2023-08-06T02:54:32;21.40;85.20
13600;DHT22;6871;51.34740610;4.31323160;2023-08-06T02:57:03;21.40;85.20
13600;DHT22;6871;51.34740610;4.31323160;2023-08-06T02:59:39;21.40;85.30
13600;DHT22;6871;51.34740610;4.31323160;2023-08-06T03:02:11;21.40;85.10
13600;DHT22;6871;51.34740610;4.31323160;2023-08-06T03:04:42;21.40;85.10
13600;DHT22;6871;51.34740610;4.31323160;2023-08-06T03:07:12;21.40;85.10
13600;DHT22;6871;51.34740610;4.31323160;2023-08-06T03:09:45;21.40;85.00
13600;DHT22;6871;51.34740610;4.31323160;2023-08-06T03:12:15;21.40;85.10
13600;DHT22;6871;51.34740610;4.31323160;2023-08-06T03:14:46;21.40;85.00
13600;DHT22;6871;51.34740610;4.31323160;2023-08-06T03:20:44;21.40;85.00
13600;DHT22;6871;51.34740610;4.31323160;2023-08-06T03:23:19;21.40;84.90
13600;DHT22;6871;51.34740610;4.31323160;2023-08-06T03:25:50;21.40;85.10
13600;DHT22;6871;51.34740610;4.31323160;2023-08-06T03:28:20;21.40;85.00
13600;DHT22;6871;51.34740610;4.31323160;2023-08-06T03:30:59;21.40;85.10
13600;DHT22;6871;51.34740610;4.31323160;2023-08-06T03:33:39;21.40;85.10
13600;DHT22;6871;51.34740610;4.31323160;2023-08-06T03:36:11;21.40;85.10
13600;DHT22;6871;51.34740610;4.31323160;2023-08-06T03:38:46;21.40;84.90
13600;DHT22;6871;51.34740610;4.31323160;2023-08-06T03:41:19;21.40;85.10
13600;DHT22;6871;51.34740610;4.31323160;2023-08-06T03:43:52;21.40;85.30
13600;DHT22;6871;51.34740610;4.31323160;2023-08-06T03:46:22;21.40;85.30
13600;DHT22;6871;51.34740610;4.31323160;2023-08-06T03:49:06;21.40;85.10
13600;DHT22;6871;51.34740610;4.31323160;2023-08-06T03:51:59;21.40;85.10
13600;DHT22;6871;51.34740610;4.31323160;2023-08-06T03:54:35;21.40;85.10
13600;DHT22;6871;51.34740610;4.31323160;2023-08-06T03:57:06;21.40;85.30
13600;DHT22;6871;51.34740610;4.31323160;2023-08-06T03:59:51;21.40;85.40
13600;DHT22;6871;51.34740610;4.31323160;2023-08-06T04:02:22;21.40;85.50
13600;DHT22;6871;51.34740610;4.31323160;2023-08-06T04:04:53;21.30;86.40
13600;DHT22;6871;51.34740610;4.31323160;2023-08-06T04:07:24;21.40;85.50
13600;DHT22;6871;51.34740610;4.31323160;2023-08-06T04:09:57;21.40;85.60
13600;DHT22;6871;51.34740610;4.31323160;2023-08-06T04:12:29;21.30;85.50
13600;DHT22;6871;51.34740610;4.31323160;2023-08-06T04:15:01;21.30;85.60
13600;DHT22;6871;51.34740610;4.31323160;2023-08-06T04:17:32;21.30;85.70
13600;DHT22;6871;51.34740610;4.31323160;2023-08-06T04:20:02;21.30;85.60
13600;DHT22;6871;51.34740610;4.31323160;2023-08-06T04:22:33;21.30;85.60
13600;DHT22;6871;51.34740610;4.31323160;2023-08-06T04:25:05;21.30;85.50
13600;DHT22;6871;51.34740610;4.31323160;2023-08-06T04:27:36;21.30;85.40
13600;DHT22;6871;51.34740610;4.31323160;2023-08-06T04:30:11;21.30;85.50
13600;DHT22;6871;51.34740610;4.31323160;2023-08-06T04:32:42;21.30;85.50
13600;DHT22;6871;51.34740610;4.31323160;2023-08-06T04:35:16;21.30;85.50
13600;DHT22;6871;51.34740610;4.31323160;2023-08-06T04:37:45;21.30;85.50
13600;DHT22;6871;51.34740610;4.31323160;2023-08-06T04:40:17;21.30;85.50
13600;DHT22;6871;51.34740610;4.31323160;2023-08-06T04:46:16;21.30;85.60
13600;DHT22;6871;51.34740610;4.31323160;2023-08-06T04:48:47;21.20;85.70
13600;DHT22;6871;51.34740610;4.31323160;2023-08-06T04:51:20;21.20;85.60
13600;DHT22;6871;51.34740610;4.31323160;2023-08-06T04:53:50;21.20;85.70
13600;DHT22;6871;51.34740610;4.31323160;2023-08-06T04:56:21;21.20;85.80
13600;DHT22;6871;51.34740610;4.31323160;2023-08-06T04:58:52;21.20;85.70
13600;DHT22;6871;51.34740610;4.31323160;2023-08-06T05:01:22;21.20;86.50
13600;DHT22;6871;51.34740610;4.31323160;2023-08-06T05:03:54;21.20;85.70
13600;DHT22;6871;51.34740610;4.31323160;2023-08-06T05:06:25;21.20;85.60
13600;DHT22;6871;51.34740610;4.31323160;2023-08-06T05:19:25;21.20;85.70
13600;DHT22;6871;51.34740610;4.31323160;2023-08-06T05:25:21;21.20;85.80
13600;DHT22;6871;51.34740610;4.31323160;2023-08-06T05:28:14;21.20;85.90
13600;DHT22;6871;51.34740610;4.31323160;2023-08-06T05:31:14;21.20;86.00
13600;DHT22;6871;51.34740610;4.31323160;2023-08-06T05:33:54;21.20;85.70
13600;DHT22;6871;51.34740610;4.31323160;2023-08-06T05:36:26;21.20;85.70
13600;DHT22;6871;51.34740610;4.31323160;2023-08-06T05:39:02;21.20;85.70
13600;DHT22;6871;51.34740610;4.31323160;2023-08-06T05:41:37;21.20;85.70
13600;DHT22;6871;51.34740610;4.31323160;2023-08-06T05:47:52;21.20;85.50
13600;DHT22;6871;51.34740610;4.31323160;2023-08-06T05:57:29;21.20;85.60
13600;DHT22;6871;51.34740610;4.31323160;2023-08-06T06:00:15;21.10;85.60
13600;DHT22;6871;51.34740610;4.31323160;2023-08-06T06:02:59;21.10;85.50
13600;DHT22;6871;51.34740610;4.31323160;2023-08-06T06:05:34;21.10;85.40
13600;DHT22;6871;51.34740610;4.31323160;2023-08-06T06:11:12;21.10;85.30
13600;DHT22;6871;51.34740610;4.31323160;2023-08-06T06:13:42;21.10;85.20
13600;DHT22;6871;51.34740610;4.31323160;2023-08-06T06:16:13;21.20;85.20
13600;DHT22;6871;51.34740610;4.31323160;2023-08-06T06:18:49;21.20;85.20
13600;DHT22;6871;51.34740610;4.31323160;2023-08-06T06:21:20;21.20;85.20
13600;DHT22;6871;51.34740610;4.31323160;2023-08-06T06:23:54;21.10;85.10
13600;DHT22;6871;51.34740610;4.31323160;2023-08-06T06:26:26;21.20;85.10
13600;DHT22;6871;51.34740610;4.31323160;2023-08-06T06:28:59;21.20;85.10
13600;DHT22;6871;51.34740610;4.31323160;2023-08-06T06:31:48;21.20;85.00
13600;DHT22;6871;51.34740610;4.31323160;2023-08-06T06:34:24;21.10;85.20
13600;DHT22;6871;51.34740610;4.31323160;2023-08-06T06:37:00;21.10;84.90
13600;DHT22;6871;51.34740610;4.31323160;2023-08-06T06:39:55;21.10;84.90
13600;DHT22;6871;51.34740610;4.31323160;2023-08-06T06:42:43;21.10;84.90
13600;DHT22;6871;51.34740610;4.31323160;2023-08-06T06:45:32;21.10;84.90
13600;DHT22;6871;51.34740610;4.31323160;2023-08-06T06:51:23;21.10;84.80
13600;DHT22;6871;51.34740610;4.31323160;2023-08-06T06:53:55;21.10;84.90
13600;DHT22;6871;51.34740610;4.31323160;2023-08-06T07:00:11;21.10;85.00
13600;DHT22;6871;51.34740610;4.31323160;2023-08-06T07:02:42;21.10;85.00
13600;DHT22;6871;51.34740610;4.31323160;2023-08-06T07:05:19;21.10;85.10
13600;DHT22;6871;51.34740610;4.31323160;2023-08-06T07:13:23;21.10;85.10
13600;DHT22;6871;51.34740610;4.31323160;2023-08-06T07:16:14;21.10;85.10
13600;DHT22;6871;51.34740610;4.31323160;2023-08-06T07:18:50;21.10;85.10
13600;DHT22;6871;51.34740610;4.31323160;2023-08-06T07:25:03;21.10;84.90
13600;DHT22;6871;51.34740610;4.31323160;2023-08-06T07:27:35;21.10;85.00
13600;DHT22;6871;51.34740610;4.31323160;2023-08-06T07:30:21;21.10;85.00
13600;DHT22;6871;51.34740610;4.31323160;2023-08-06T07:32:57;21.10;85.00
13600;DHT22;6871;51.34740610;4.31323160;2023-08-06T07:35:49;21.10;85.10
13600;DHT22;6871;51.34740610;4.31323160;2023-08-06T07:45:16;21.10;85.10
13600;DHT22;6871;51.34740610;4.31323160;2023-08-06T07:47:50;21.00;85.10
13600;DHT22;6871;51.34740610;4.31323160;2023-08-06T07:53:33;21.00;85.10
13600;DHT22;6871;51.34740610;4.31323160;2023-08-06T07:56:08;21.00;85.10
13600;DHT22;6871;51.34740610;4.31323160;2023-08-06T07:58:39;21.00;85.10
13600;DHT22;6871;51.34740610;4.31323160;2023-08-06T08:01:12;21.00;85.00
13600;DHT22;6871;51.34740610;4.31323160;2023-08-06T08:03:44;21.00;85.10
13600;DHT22;6871;51.34740610;4.31323160;2023-08-06T08:06:18;21.00;85.10
13600;DHT22;6871;51.34740610;4.31323160;2023-08-06T08:08:48;21.10;85.20
13600;DHT22;6871;51.34740610;4.31323160;2023-08-06T08:14:42;21.10;85.20
13600;DHT22;6871;51.34740610;4.31323160;2023-08-06T08:20:43;21.00;85.30
13600;DHT22;6871;51.34740610;4.31323160;2023-08-06T08:23:16;21.00;85.30
13600;DHT22;6871;51.34740610;4.31323160;2023-08-06T08:39:25;21.00;85.60
13600;DHT22;6871;51.34740610;4.31323160;2023-08-06T08:42:01;21.00;85.70
13600;DHT22;6871;51.34740610;4.31323160;2023-08-06T08:44:33;20.90;85.70
13600;DHT22;6871;51.34740610;4.31323160;2023-08-06T08:50:34;21.00;85.60
13600;DHT22;6871;51.34740610;4.31323160;2023-08-06T08:53:13;21.00;85.60
13600;DHT22;6871;51.34740610;4.31323160;2023-08-06T08:55:46;21.00;85.60
13600;DHT22;6871;51.34740610;4.31323160;2023-08-06T08:58:37;21.00;85.60
13600;DHT22;6871;51.34740610;4.31323160;2023-08-06T09:01:20;21.00;85.60
13600;DHT22;6871;51.34740610;4.31323160;2023-08-06T09:10:28;21.00;85.80
13600;DHT22;6871;51.34740610;4.31323160;2023-08-06T09:13:01;21.00;85.90
13600;DHT22;6871;51.34740610;4.31323160;2023-08-06T09:15:34;21.00;86.00
13600;DHT22;6871;51.34740610;4.31323160;2023-08-06T09:18:34;21.00;86.00
13600;DHT22;6871;51.34740610;4.31323160;2023-08-06T09:24:46;21.00;86.00
13600;DHT22;6871;51.34740610;4.31323160;2023-08-06T09:27:25;21.00;86.10
13600;DHT22;6871;51.34740610;4.31323160;2023-08-06T09:29:58;21.00;86.10
13600;DHT22;6871;51.34740610;4.31323160;2023-08-06T09:32:56;20.90;86.50
13600;DHT22;6871;51.34740610;4.31323160;2023-08-06T09:35:30;21.00;86.50
13600;DHT22;6871;51.34740610;4.31323160;2023-08-06T09:38:11;21.00;86.30
13600;DHT22;6871;51.34740610;4.31323160;2023-08-06T09:44:06;20.90;86.60
13600;DHT22;6871;51.34740610;4.31323160;2023-08-06T09:46:53;21.00;86.30
13600;DHT22;6871;51.34740610;4.31323160;2023-08-06T10:03:04;21.00;86.60
13600;DHT22;6871;51.34740610;4.31323160;2023-08-06T10:05:45;21.00;86.70
13600;DHT22;6871;51.34740610;4.31323160;2023-08-06T10:08:17;21.00;86.80
13600;DHT22;6871;51.34740610;4.31323160;2023-08-06T10:14:31;21.00;86.80
13600;DHT22;6871;51.34740610;4.31323160;2023-08-06T10:20:33;21.00;86.60
13600;DHT22;6871;51.34740610;4.31323160;2023-08-06T10:23:05;21.00;86.50
13600;DHT22;6871;51.34740610;4.31323160;2023-08-06T10:28:58;21.00;86.70
13600;DHT22;6871;51.34740610;4.31323160;2023-08-06T10:48:48;19.00;91.70
13600;DHT22;6871;51.34740610;4.31323160;2023-08-06T10:51:37;19.20;91.50
13600;DHT22;6871;51.34740610;4.31323160;2023-08-06T10:54:07;19.40;91.10
13600;DHT22;6871;51.34740610;4.31323160;2023-08-06T11:09:06;20.10;90.30
13600;DHT22;6871;51.34740610;4.31323160;2023-08-06T11:11:40;20.00;90.60
13600;DHT22;6871;51.34740610;4.31323160;2023-08-06T11:14:33;19.90;91.30
13600;DHT22;6871;51.34740610;4.31323160;2023-08-06T11:17:03;20.00;90.60
13600;DHT22;6871;51.34740610;4.31323160;2023-08-06T11:19:34;20.20;90.40
13600;DHT22;6871;51.34740610;4.31323160;2023-08-06T11:22:15;20.30;90.20
13600;DHT22;6871;51.34740610;4.31323160;2023-08-06T11:24:49;20.40;89.80
13600;DHT22;6871;51.34740610;4.31323160;2023-08-06T11:27:57;20.50;89.40
13600;DHT22;6871;51.34740610;4.31323160;2023-08-06T11:33:53;20.60;88.70
13600;DHT22;6871;51.34740610;4.31323160;2023-08-06T11:36:32;20.60;88.30
13600;DHT22;6871;51.34740610;4.31323160;2023-08-06T11:39:24;20.70;88.30
13600;DHT22;6871;51.34740610;4.31323160;2023-08-06T11:42:06;20.70;88.30
13600;DHT22;6871;51.34740610;4.31323160;2023-08-06T11:44:43;20.70;88.10
13600;DHT22;6871;51.34740610;4.31323160;2023-08-06T11:47:31;20.70;87.90
13600;DHT22;6871;51.34740610;4.31323160;2023-08-06T11:50:00;20.80;87.90
13600;DHT22;6871;51.34740610;4.31323160;2023-08-06T11:52:32;20.70;87.80
13600;DHT22;6871;51.34740610;4.31323160;2023-08-06T11:55:11;20.80;88.00
13600;DHT22;6871;51.34740610;4.31323160;2023-08-06T11:58:18;20.70;87.90
13600;DHT22;6871;51.34740610;4.31323160;2023-08-06T12:13:17;20.80;88.20
13600;DHT22;6871;51.34740610;4.31323160;2023-08-06T12:15:48;20.80;88.50
13600;DHT22;6871;51.34740610;4.31323160;2023-08-06T12:18:44;20.80;88.20
13600;DHT22;6871;51.34740610;4.31323160;2023-08-06T12:21:24;20.80;88.20
13600;DHT22;6871;51.34740610;4.31323160;2023-08-06T12:23:58;20.80;88.40
13600;DHT22;6871;51.34740610;4.31323160;2023-08-06T12:26:29;20.80;88.30
13600;DHT22;6871;51.34740610;4.31323160;2023-08-06T12:29:04;20.80;89.20
13600;DHT22;6871;51.34740610;4.31323160;2023-08-06T12:31:37;20.80;88.40
13600;DHT22;6871;51.34740610;4.31323160;2023-08-06T12:34:10;20.80;88.40
13600;DHT22;6871;51.34740610;4.31323160;2023-08-06T12:39:33;20.80;88.20
13600;DHT22;6871;51.34740610;4.31323160;2023-08-06T12:42:26;20.80;88.10
13600;DHT22;6871;51.34740610;4.31323160;2023-08-06T12:44:55;20.80;88.10
13600;DHT22;6871;51.34740610;4.31323160;2023-08-06T12:47:26;20.80;88.00
13600;DHT22;6871;51.34740610;4.31323160;2023-08-06T12:49:58;20.80;88.80
13600;DHT22;6871;51.34740610;4.31323160;2023-08-06T12:52:46;20.80;87.90
13600;DHT22;6871;51.34740610;4.31323160;2023-08-06T12:55:19;20.80;87.80
13600;DHT22;6871;51.34740610;4.31323160;2023-08-06T12:57:50;20.80;88.80
13600;DHT22;6871;51.34740610;4.31323160;2023-08-06T13:00:24;20.80;88.00
13600;DHT22;6871;51.34740610;4.31323160;2023-08-06T13:02:56;20.80;87.90
13600;DHT22;6871;51.34740610;4.31323160;2023-08-06T13:05:32;20.80;87.80
13600;DHT22;6871;51.34740610;4.31323160;2023-08-06T13:08:08;20.80;87.80
13600;DHT22;6871;51.34740610;4.31323160;2023-08-06T13:14:38;20.80;87.80
13600;DHT22;6871;51.34740610;4.31323160;2023-08-06T13:17:26;20.80;87.90
13600;DHT22;6871;51.34740610;4.31323160;2023-08-06T13:23:39;20.80;87.80
13600;DHT22;6871;51.34740610;4.31323160;2023-08-06T13:29:03;20.80;87.80
13600;DHT22;6871;51.34740610;4.31323160;2023-08-06T13:31:54;20.80;87.80
13600;DHT22;6871;51.34740610;4.31323160;2023-08-06T13:34:31;20.80;87.80
13600;DHT22;6871;51.34740610;4.31323160;2023-08-06T13:37:20;20.80;87.70
13600;DHT22;6871;51.34740610;4.31323160;2023-08-06T13:54:21;20.80;88.00
13600;DHT22;6871;51.34740610;4.31323160;2023-08-06T14:00:50;20.80;87.90
13600;DHT22;6871;51.34740610;4.31323160;2023-08-06T14:07:30;20.70;87.70
13600;DHT22;6871;51.34740610;4.31323160;2023-08-06T14:14:05;20.80;87.70
13600;DHT22;6871;51.34740610;4.31323160;2023-08-06T14:27:25;20.70;88.40
13600;DHT22;6871;51.34740610;4.31323160;2023-08-06T14:30:36;20.70;87.50
13600;DHT22;6871;51.34740610;4.31323160;2023-08-06T14:47:31;20.80;87.30
13600;DHT22;6871;51.34740610;4.31323160;2023-08-06T16:34:08;20.50;89.50
13600;DHT22;6871;51.34740610;4.31323160;2023-08-06T16:36:55;20.50;89.80
13600;DHT22;6871;51.34740610;4.31323160;2023-08-06T17:00:41;20.50;87.00
13600;DHT22;6871;51.34740610;4.31323160;2023-08-06T17:03:18;20.50;87.60
13600;DHT22;6871;51.34740610;4.31323160;2023-08-06T17:06:23;20.50;87.90
13600;DHT22;6871;51.34740610;4.31323160;2023-08-06T17:08:53;20.50;88.20
13600;DHT22;6871;51.34740610;4.31323160;2023-08-06T17:41:42;20.70;88.70
13600;DHT22;6871;51.34740610;4.31323160;2023-08-06T18:03:58;20.60;87.80
13600;DHT22;6871;51.34740610;4.31323160;2023-08-06T18:06:32;20.60;88.20
13600;DHT22;6871;51.34740610;4.31323160;2023-08-06T18:12:21;20.60;88.60
13600;DHT22;6871;51.34740610;4.31323160;2023-08-06T18:18:20;20.60;87.70
13600;DHT22;6871;51.34740610;4.31323160;2023-08-06T18:20:54;20.60;87.40
13600;DHT22;6871;51.34740610;4.31323160;2023-08-06T18:23:28;20.60;87.30
13600;DHT22;6871;51.34740610;4.31323160;2023-08-06T18:28:52;20.60;87.30
13600;DHT22;6871;51.34740610;4.31323160;2023-08-06T18:31:27;20.60;87.40
13600;DHT22;6871;51.34740610;4.31323160;2023-08-06T18:34:19;20.60;87.30
13600;DHT22;6871;51.34740610;4.31323160;2023-08-06T18:37:03;20.70;87.50
13600;DHT22;6871;51.34740610;4.31323160;2023-08-06T18:39:38;20.60;87.80
13600;DHT22;6871;51.34740610;4.31323160;2023-08-06T18:42:13;20.60;87.50
13600;DHT22;6871;51.34740610;4.31323160;2023-08-06T18:44:45;20.60;87.40
13600;DHT22;6871;51.34740610;4.31323160;2023-08-06T18:47:39;20.60;87.40
13600;DHT22;6871;51.34740610;4.31323160;2023-08-06T18:50:16;20.60;87.50
13600;DHT22;6871;51.34740610;4.31323160;2023-08-06T18:58:46;20.60;87.80
13600;DHT22;6871;51.34740610;4.31323160;2023-08-06T19:01:16;20.60;87.50
13600;DHT22;6871;51.34740610;4.31323160;2023-08-06T19:03:45;20.70;87.50
13600;DHT22;6871;51.34740610;4.31323160;2023-08-06T19:06:20;20.60;87.30
13600;DHT22;6871;51.34740610;4.31323160;2023-08-06T19:09:12;20.60;87.30
13600;DHT22;6871;51.34740610;4.31323160;2023-08-06T19:11:48;20.60;87.40
13600;DHT22;6871;51.34740610;4.31323160;2023-08-06T19:14:18;20.60;87.00
13600;DHT22;6871;51.34740610;4.31323160;2023-08-06T19:16:50;20.60;86.90
13600;DHT22;6871;51.34740610;4.31323160;2023-08-06T19:19:38;20.60;87.00
13600;DHT22;6871;51.34740610;4.31323160;2023-08-06T19:22:10;20.60;87.70
13600;DHT22;6871;51.34740610;4.31323160;2023-08-06T19:24:43;20.60;86.90
13600;DHT22;6871;51.34740610;4.31323160;2023-08-06T19:27:12;20.60;87.00
13600;DHT22;6871;51.34740610;4.31323160;2023-08-06T19:29:46;20.50;87.10
13600;DHT22;6871;51.34740610;4.31323160;2023-08-06T19:32:15;20.50;86.90
13600;DHT22;6871;51.34740610;4.31323160;2023-08-06T19:37:39;20.60;86.70
13600;DHT22;6871;51.34740610;4.31323160;2023-08-06T19:40:09;20.60;86.20
13600;DHT22;6871;51.34740610;4.31323160;2023-08-06T19:42:41;20.60;86.70
13600;DHT22;6871;51.34740610;4.31323160;2023-08-06T19:45:13;20.60;86.70
13600;DHT22;6871;51.34740610;4.31323160;2023-08-06T19:47:45;20.50;87.00
13600;DHT22;6871;51.34740610;4.31323160;2023-08-06T19:50:17;20.50;86.70
13600;DHT22;6871;51.34740610;4.31323160;2023-08-06T19:52:46;20.50;86.70
13600;DHT22;6871;51.34740610;4.31323160;2023-08-06T19:55:18;20.60;86.70
13600;DHT22;6871;51.34740610;4.31323160;2023-08-06T19:57:47;20.60;86.60
13600;DHT22;6871;51.34740610;4.31323160;2023-08-06T20:00:16;20.60;86.50
13600;DHT22;6871;51.34740610;4.31323160;2023-08-06T20:02:46;20.60;86.50
13600;DHT22;6871;51.34740610;4.31323160;2023-08-06T20:05:22;20.60;86.50
13600;DHT22;6871;51.34740610;4.31323160;2023-08-06T20:07:53;20.60;86.40
13600;DHT22;6871;51.34740610;4.31323160;2023-08-06T20:10:24;20.50;86.40
13600;DHT22;6871;51.34740610;4.31323160;2023-08-06T20:12:53;20.60;86.50
13600;DHT22;6871;51.34740610;4.31323160;2023-08-06T20:15:27;20.50;86.20
13600;DHT22;6871;51.34740610;4.31323160;2023-08-06T20:18:18;20.50;86.20
13600;DHT22;6871;51.34740610;4.31323160;2023-08-06T20:20:51;20.60;86.20
13600;DHT22;6871;51.34740610;4.31323160;2023-08-06T20:23:26;20.50;86.20
13600;DHT22;6871;51.34740610;4.31323160;2023-08-06T20:25:55;20.50;86.20
13600;DHT22;6871;51.34740610;4.31323160;2023-08-06T20:28:29;20.50;86.10
13600;DHT22;6871;51.34740610;4.31323160;2023-08-06T20:31:01;20.50;86.10
13600;DHT22;6871;51.34740610;4.31323160;2023-08-06T20:33:53;20.50;86.80
13600;DHT22;6871;51.34740610;4.31323160;2023-08-06T20:36:22;20.50;85.90
13600;DHT22;6871;51.34740610;4.31323160;2023-08-06T20:38:55;20.50;85.70
13600;DHT22;6871;51.34740610;4.31323160;2023-08-06T20:41:24;20.50;85.80
13600;DHT22;6871;51.34740610;4.31323160;2023-08-06T20:43:54;20.50;85.70
13600;DHT22;6871;51.34740610;4.31323160;2023-08-06T20:46:23;20.50;85.50
13600;DHT22;6871;51.34740610;4.31323160;2023-08-06T20:49:17;20.50;85.50
13600;DHT22;6871;51.34740610;4.31323160;2023-08-06T20:54:56;20.50;85.50
13600;DHT22;6871;51.34740610;4.31323160;2023-08-06T20:57:44;20.50;85.30
13600;DHT22;6871;51.34740610;4.31323160;2023-08-06T21:00:15;20.50;85.50
13600;DHT22;6871;51.34740610;4.31323160;2023-08-06T21:02:46;20.50;85.40
13600;DHT22;6871;51.34740610;4.31323160;2023-08-06T21:05:16;20.50;85.10
13600;DHT22;6871;51.34740610;4.31323160;2023-08-06T21:07:46;20.50;85.50
13600;DHT22;6871;51.34740610;4.31323160;2023-08-06T21:10:35;20.50;85.50
13600;DHT22;6871;51.34740610;4.31323160;2023-08-06T21:13:06;20.40;85.40
13600;DHT22;6871;51.34740610;4.31323160;2023-08-06T21:15:54;20.40;85.30
13600;DHT22;6871;51.34740610;4.31323160;2023-08-06T21:18:29;20.40;85.10
13600;DHT22;6871;51.34740610;4.31323160;2023-08-06T21:21:03;20.50;85.20
13600;DHT22;6871;51.34740610;4.31323160;2023-08-06T21:23:34;20.50;85.10
13600;DHT22;6871;51.34740610;4.31323160;2023-08-06T21:26:05;20.40;84.80
13600;DHT22;6871;51.34740610;4.31323160;2023-08-06T21:28:38;20.40;85.00
13600;DHT22;6871;51.34740610;4.31323160;2023-08-06T21:31:10;20.40;85.40
13600;DHT22;6871;51.34740610;4.31323160;2023-08-06T21:33:42;20.40;85.10
13600;DHT22;6871;51.34740610;4.31323160;2023-08-06T21:36:13;20.40;85.20
13600;DHT22;6871;51.34740610;4.31323160;2023-08-06T21:45:16;20.40;84.60
13600;DHT22;6871;51.34740610;4.31323160;2023-08-06T21:47:52;20.40;84.50
13600;DHT22;6871;51.34740610;4.31323160;2023-08-06T21:50:22;20.40;84.60
13600;DHT22;6871;51.34740610;4.31323160;2023-08-06T21:52:51;20.40;84.60
13600;DHT22;6871;51.34740610;4.31323160;2023-08-06T21:55:22;20.40;84.80
13600;DHT22;6871;51.34740610;4.31323160;2023-08-06T22:17:26;20.40;85.10
13600;DHT22;6871;51.34740610;4.31323160;2023-08-06T22:19:59;20.40;85.10
13600;DHT22;6871;51.34740610;4.31323160;2023-08-06T22:25:39;20.40;85.30